sensor_id;sensor_type;location;lat;lon;timestamp;temperature;humidity
23475;DHT22;11910;52.086;21.066;2022-12-24T00:01:10;6.30;99.90
23475;DHT22;11910;52.086;21.066;2022-12-24T00:03:36;6.30;99.90
23475;DHT22;11910;52.086;21.066;2022-12-24T00:06:08;6.30;99.90
23475;DHT22;11910;52.086;21.066;2022-12-24T00:08:34;6.30;99.90
23475;DHT22;11910;52.086;21.066;2022-12-24T00:11:00;6.30;99.90
23475;DHT22;11910;52.086;21.066;2022-12-24T00:13:25;6.30;99.90
23475;DHT22;11910;52.086;21.066;2022-12-24T00:15:51;6.30;99.90
23475;DHT22;11910;52.086;21.066;2022-12-24T00:18:16;6.30;99.90
23475;DHT22;11910;52.086;21.066;2022-12-24T00:20:48;6.30;99.90
23475;DHT22;11910;52.086;21.066;2022-12-24T00:23:14;6.30;99.90
23475;DHT22;11910;52.086;21.066;2022-12-24T00:25:40;6.30;99.90
23475;DHT22;11910;52.086;21.066;2022-12-24T00:28:05;6.30;99.90
23475;DHT22;11910;52.086;21.066;2022-12-24T00:30:31;6.30;99.90
23475;DHT22;11910;52.086;21.066;2022-12-24T00:32:56;6.30;99.90
23475;DHT22;11910;52.086;21.066;2022-12-24T00:35:22;6.30;99.90
23475;DHT22;11910;52.086;21.066;2022-12-24T00:37:47;6.30;99.90
23475;DHT22;11910;52.086;21.066;2022-12-24T00:40:13;6.20;99.90
23475;DHT22;11910;52.086;21.066;2022-12-24T00:42:39;6.20;99.90
23475;DHT22;11910;52.086;21.066;2022-12-24T00:45:04;6.10;99.90
23475;DHT22;11910;52.086;21.066;2022-12-24T00:47:30;6.10;99.90
23475;DHT22;11910;52.086;21.066;2022-12-24T00:49:55;6.10;99.90
23475;DHT22;11910;52.086;21.066;2022-12-24T00:52:21;6.10;99.90
23475;DHT22;11910;52.086;21.066;2022-12-24T00:54:46;6.10;99.90
23475;DHT22;11910;52.086;21.066;2022-12-24T00:57:12;6.10;99.90
23475;DHT22;11910;52.086;21.066;2022-12-24T00:59:37;6.10;99.90
23475;DHT22;11910;52.086;21.066;2022-12-24T01:02:03;6.10;99.90
23475;DHT22;11910;52.086;21.066;2022-12-24T01:04:28;6.10;99.90
23475;DHT22;11910;52.086;21.066;2022-12-24T01:07:12;6.10;99.90
23475;DHT22;11910;52.086;21.066;2022-12-24T01:09:38;6.10;99.90
23475;DHT22;11910;52.086;21.066;2022-12-24T01:12:03;6.00;99.90
23475;DHT22;11910;52.086;21.066;2022-12-24T01:14:29;6.00;99.90
23475;DHT22;11910;52.086;21.066;2022-12-24T01:16:54;6.00;99.90
23475;DHT22;11910;52.086;21.066;2022-12-24T01:19:20;6.00;99.90
23475;DHT22;11910;52.086;21.066;2022-12-24T01:21:45;5.90;99.90
23475;DHT22;11910;52.086;21.066;2022-12-24T01:24:14;5.90;99.90
23475;DHT22;11910;52.086;21.066;2022-12-24T01:26:40;6.00;99.90
23475;DHT22;11910;52.086;21.066;2022-12-24T01:29:06;6.00;99.90
23475;DHT22;11910;52.086;21.066;2022-12-24T01:31:31;6.00;99.90
23475;DHT22;11910;52.086;21.066;2022-12-24T01:33:57;6.00;99.90
23475;DHT22;11910;52.086;21.066;2022-12-24T01:36:22;6.00;99.90
23475;DHT22;11910;52.086;21.066;2022-12-24T01:38:47;6.00;99.90
23475;DHT22;11910;52.086;21.066;2022-12-24T01:41:15;6.00;99.90
23475;DHT22;11910;52.086;21.066;2022-12-24T01:44:15;6.00;99.90
23475;DHT22;11910;52.086;21.066;2022-12-24T01:46:40;5.90;99.90
23475;DHT22;11910;52.086;21.066;2022-12-24T01:49:07;5.90;99.90
23475;DHT22;11910;52.086;21.066;2022-12-24T01:51:39;6.00;99.90
23475;DHT22;11910;52.086;21.066;2022-12-24T01:56:32;5.90;99.90
23475;DHT22;11910;52.086;21.066;2022-12-24T01:59:01;6.00;99.90
23475;DHT22;11910;52.086;21.066;2022-12-24T02:01:29;6.00;99.90
23475;DHT22;11910;52.086;21.066;2022-12-24T02:03:54;6.00;99.90
23475;DHT22;11910;52.086;21.066;2022-12-24T02:06:20;6.10;99.90
23475;DHT22;11910;52.086;21.066;2022-12-24T02:08:46;6.10;99.90
23475;DHT22;11910;52.086;21.066;2022-12-24T02:11:12;6.10;99.90
23475;DHT22;11910;52.086;21.066;2022-12-24T02:13:38;6.10;99.90
23475;DHT22;11910;52.086;21.066;2022-12-24T02:16:07;6.10;99.90
23475;DHT22;11910;52.086;21.066;2022-12-24T02:21:20;6.10;99.90
23475;DHT22;11910;52.086;21.066;2022-12-24T02:26:35;6.20;99.90
23475;DHT22;11910;52.086;21.066;2022-12-24T02:31:39;6.20;99.90
23475;DHT22;11910;52.086;21.066;2022-12-24T02:36:53;6.20;99.90
23475;DHT22;11910;52.086;21.066;2022-12-24T02:39:22;6.20;99.90
23475;DHT22;11910;52.086;21.066;2022-12-24T02:41:49;6.20;99.90
23475;DHT22;11910;52.086;21.066;2022-12-24T02:44:33;6.20;99.90
23475;DHT22;11910;52.086;21.066;2022-12-24T02:47:01;6.20;99.90
23475;DHT22;11910;52.086;21.066;2022-12-24T02:49:27;6.20;99.90
23475;DHT22;11910;52.086;21.066;2022-12-24T02:51:53;6.20;99.90
23475;DHT22;11910;52.086;21.066;2022-12-24T02:54:18;6.20;99.90
23475;DHT22;11910;52.086;21.066;2022-12-24T03:01:48;6.10;99.90
23475;DHT22;11910;52.086;21.066;2022-12-24T03:04:21;6.10;99.90
23475;DHT22;11910;52.086;21.066;2022-12-24T03:09:33;6.10;99.90
23475;DHT22;11910;52.086;21.066;2022-12-24T03:12:18;6.10;99.90
23475;DHT22;11910;52.086;21.066;2022-12-24T03:14:45;6.10;99.90
23475;DHT22;11910;52.086;21.066;2022-12-24T03:17:11;6.10;99.90
23475;DHT22;11910;52.086;21.066;2022-12-24T03:19:37;6.10;99.90
23475;DHT22;11910;52.086;21.066;2022-12-24T03:22:03;6.10;99.90
23475;DHT22;11910;52.086;21.066;2022-12-24T03:24:31;6.10;99.90
23475;DHT22;11910;52.086;21.066;2022-12-24T03:26:57;6.10;99.90
23475;DHT22;11910;52.086;21.066;2022-12-24T03:29:23;6.20;99.90
23475;DHT22;11910;52.086;21.066;2022-12-24T03:31:50;6.20;99.90
23475;DHT22;11910;52.086;21.066;2022-12-24T03:34:16;6.20;99.90
23475;DHT22;11910;52.086;21.066;2022-12-24T03:36:42;6.20;99.90
23475;DHT22;11910;52.086;21.066;2022-12-24T03:39:08;6.20;99.90
23475;DHT22;11910;52.086;21.066;2022-12-24T03:41:34;6.10;99.90
23475;DHT22;11910;52.086;21.066;2022-12-24T03:44:00;6.10;99.90
23475;DHT22;11910;52.086;21.066;2022-12-24T03:46:25;6.10;99.90
23475;DHT22;11910;52.086;21.066;2022-12-24T03:48:50;6.10;99.90
23475;DHT22;11910;52.086;21.066;2022-12-24T03:51:17;6.10;99.90
23475;DHT22;11910;52.086;21.066;2022-12-24T03:53:43;6.00;99.90
23475;DHT22;11910;52.086;21.066;2022-12-24T03:56:08;6.10;99.90
23475;DHT22;11910;52.086;21.066;2022-12-24T03:58:34;6.00;99.90
23475;DHT22;11910;52.086;21.066;2022-12-24T04:00:59;6.10;99.90
23475;DHT22;11910;52.086;21.066;2022-12-24T04:03:25;6.10;99.90
23475;DHT22;11910;52.086;21.066;2022-12-24T04:06:03;6.10;99.90
23475;DHT22;11910;52.086;21.066;2022-12-24T04:08:29;6.10;99.90
23475;DHT22;11910;52.086;21.066;2022-12-24T04:10:55;6.10;99.90
23475;DHT22;11910;52.086;21.066;2022-12-24T04:13:20;6.00;99.90
23475;DHT22;11910;52.086;21.066;2022-12-24T04:15:54;6.10;99.90
23475;DHT22;11910;52.086;21.066;2022-12-24T04:18:20;6.10;99.90
23475;DHT22;11910;52.086;21.066;2022-12-24T04:20:45;6.10;99.90
23475;DHT22;11910;52.086;21.066;2022-12-24T04:23:11;6.10;99.90
23475;DHT22;11910;52.086;21.066;2022-12-24T04:25:36;6.10;99.90
23475;DHT22;11910;52.086;21.066;2022-12-24T04:28:02;6.10;99.90
23475;DHT22;11910;52.086;21.066;2022-12-24T04:30:27;6.10;99.90
23475;DHT22;11910;52.086;21.066;2022-12-24T04:32:53;6.10;99.90
23475;DHT22;11910;52.086;21.066;2022-12-24T04:35:18;6.10;99.90
23475;DHT22;11910;52.086;21.066;2022-12-24T04:37:44;6.10;99.90
23475;DHT22;11910;52.086;21.066;2022-12-24T04:40:09;6.10;99.90
23475;DHT22;11910;52.086;21.066;2022-12-24T04:42:35;6.10;99.90
23475;DHT22;11910;52.086;21.066;2022-12-24T04:45:01;6.10;99.90
23475;DHT22;11910;52.086;21.066;2022-12-24T04:47:26;6.10;99.90
23475;DHT22;11910;52.086;21.066;2022-12-24T04:49:52;6.10;99.90
23475;DHT22;11910;52.086;21.066;2022-12-24T04:52:17;6.00;99.90
23475;DHT22;11910;52.086;21.066;2022-12-24T04:54:43;6.00;99.90
23475;DHT22;11910;52.086;21.066;2022-12-24T04:57:08;6.00;99.90
23475;DHT22;11910;52.086;21.066;2022-12-24T04:59:34;6.00;99.90
23475;DHT22;11910;52.086;21.066;2022-12-24T05:01:59;6.00;99.90
23475;DHT22;11910;52.086;21.066;2022-12-24T05:04:25;5.90;99.90
23475;DHT22;11910;52.086;21.066;2022-12-24T05:06:50;6.00;99.90
23475;DHT22;11910;52.086;21.066;2022-12-24T05:09:15;6.00;99.90
23475;DHT22;11910;52.086;21.066;2022-12-24T05:11:41;6.00;99.90
23475;DHT22;11910;52.086;21.066;2022-12-24T05:14:06;6.00;99.90
23475;DHT22;11910;52.086;21.066;2022-12-24T05:16:32;5.90;99.90
23475;DHT22;11910;52.086;21.066;2022-12-24T05:18:57;6.00;99.90
23475;DHT22;11910;52.086;21.066;2022-12-24T05:21:23;6.00;99.90
23475;DHT22;11910;52.086;21.066;2022-12-24T05:23:49;6.00;99.90
23475;DHT22;11910;52.086;21.066;2022-12-24T05:26:49;6.00;99.90
23475;DHT22;11910;52.086;21.066;2022-12-24T05:29:16;6.00;99.90
23475;DHT22;11910;52.086;21.066;2022-12-24T05:31:41;6.00;99.90
23475;DHT22;11910;52.086;21.066;2022-12-24T05:34:07;5.90;99.90
23475;DHT22;11910;52.086;21.066;2022-12-24T05:36:33;5.90;99.90
23475;DHT22;11910;52.086;21.066;2022-12-24T05:38:59;5.90;99.90
23475;DHT22;11910;52.086;21.066;2022-12-24T05:41:24;5.90;99.90
23475;DHT22;11910;52.086;21.066;2022-12-24T05:43:50;5.90;99.90
23475;DHT22;11910;52.086;21.066;2022-12-24T05:46:16;5.90;99.90
23475;DHT22;11910;52.086;21.066;2022-12-24T05:48:43;5.90;99.90
23475;DHT22;11910;52.086;21.066;2022-12-24T05:51:09;5.80;99.90
23475;DHT22;11910;52.086;21.066;2022-12-24T05:53:35;5.90;99.90
23475;DHT22;11910;52.086;21.066;2022-12-24T05:56:01;5.90;99.90
23475;DHT22;11910;52.086;21.066;2022-12-24T05:58:27;5.90;99.90
23475;DHT22;11910;52.086;21.066;2022-12-24T06:00:52;5.90;99.90
23475;DHT22;11910;52.086;21.066;2022-12-24T06:03:18;5.90;99.90
23475;DHT22;11910;52.086;21.066;2022-12-24T06:05:44;5.90;99.90
23475;DHT22;11910;52.086;21.066;2022-12-24T06:08:09;5.90;99.90
23475;DHT22;11910;52.086;21.066;2022-12-24T06:10:35;5.90;99.90
23475;DHT22;11910;52.086;21.066;2022-12-24T06:13:00;5.90;99.90
23475;DHT22;11910;52.086;21.066;2022-12-24T06:15:26;5.90;99.90
23475;DHT22;11910;52.086;21.066;2022-12-24T06:17:51;5.90;99.90
23475;DHT22;11910;52.086;21.066;2022-12-24T06:20:17;5.90;99.90
23475;DHT22;11910;52.086;21.066;2022-12-24T06:22:42;5.90;99.90
23475;DHT22;11910;52.086;21.066;2022-12-24T06:25:08;5.90;99.90
23475;DHT22;11910;52.086;21.066;2022-12-24T06:27:34;5.90;99.90
23475;DHT22;11910;52.086;21.066;2022-12-24T06:29:59;5.90;99.90
23475;DHT22;11910;52.086;21.066;2022-12-24T06:32:25;5.90;99.90
23475;DHT22;11910;52.086;21.066;2022-12-24T06:34:50;5.90;99.90
23475;DHT22;11910;52.086;21.066;2022-12-24T06:37:16;5.90;99.90
23475;DHT22;11910;52.086;21.066;2022-12-24T06:39:44;5.90;99.90
23475;DHT22;11910;52.086;21.066;2022-12-24T06:42:11;5.90;99.90
23475;DHT22;11910;52.086;21.066;2022-12-24T06:44:36;5.90;99.90
23475;DHT22;11910;52.086;21.066;2022-12-24T06:47:02;5.90;99.90
23475;DHT22;11910;52.086;21.066;2022-12-24T06:49:27;5.90;99.90
23475;DHT22;11910;52.086;21.066;2022-12-24T06:51:53;5.90;99.90
23475;DHT22;11910;52.086;21.066;2022-12-24T06:54:18;5.90;99.90
23475;DHT22;11910;52.086;21.066;2022-12-24T06:56:44;5.90;99.90
23475;DHT22;11910;52.086;21.066;2022-12-24T06:59:09;5.90;99.90
23475;DHT22;11910;52.086;21.066;2022-12-24T07:01:35;5.90;99.90
23475;DHT22;11910;52.086;21.066;2022-12-24T07:04:00;5.90;99.90
23475;DHT22;11910;52.086;21.066;2022-12-24T07:06:27;5.90;99.90
23475;DHT22;11910;52.086;21.066;2022-12-24T07:08:52;5.90;99.90
23475;DHT22;11910;52.086;21.066;2022-12-24T07:11:18;5.90;99.90
23475;DHT22;11910;52.086;21.066;2022-12-24T07:13:44;5.90;99.90
23475;DHT22;11910;52.086;21.066;2022-12-24T07:16:10;5.90;99.90
23475;DHT22;11910;52.086;21.066;2022-12-24T07:18:36;6.00;99.90
23475;DHT22;11910;52.086;21.066;2022-12-24T07:21:02;6.00;99.90
23475;DHT22;11910;52.086;21.066;2022-12-24T07:23:28;6.00;99.90
23475;DHT22;11910;52.086;21.066;2022-12-24T07:25:58;6.00;99.90
23475;DHT22;11910;52.086;21.066;2022-12-24T07:28:23;6.00;99.90
23475;DHT22;11910;52.086;21.066;2022-12-24T07:30:49;6.00;99.90
23475;DHT22;11910;52.086;21.066;2022-12-24T07:33:14;6.00;99.90
23475;DHT22;11910;52.086;21.066;2022-12-24T07:35:40;6.00;99.90
23475;DHT22;11910;52.086;21.066;2022-12-24T07:38:06;6.00;99.90
23475;DHT22;11910;52.086;21.066;2022-12-24T07:40:32;6.10;99.90
23475;DHT22;11910;52.086;21.066;2022-12-24T07:42:58;6.00;99.90
23475;DHT22;11910;52.086;21.066;2022-12-24T07:45:23;6.00;99.90
23475;DHT22;11910;52.086;21.066;2022-12-24T07:47:49;6.00;99.90
23475;DHT22;11910;52.086;21.066;2022-12-24T07:50:14;6.10;99.90
23475;DHT22;11910;52.086;21.066;2022-12-24T07:52:40;6.10;99.90
23475;DHT22;11910;52.086;21.066;2022-12-24T07:55:05;6.10;99.90
23475;DHT22;11910;52.086;21.066;2022-12-24T07:57:31;6.10;99.90
23475;DHT22;11910;52.086;21.066;2022-12-24T07:59:56;6.10;99.90
23475;DHT22;11910;52.086;21.066;2022-12-24T08:02:22;6.00;99.90
23475;DHT22;11910;52.086;21.066;2022-12-24T08:04:48;6.10;99.90
23475;DHT22;11910;52.086;21.066;2022-12-24T08:07:13;6.10;99.90
23475;DHT22;11910;52.086;21.066;2022-12-24T08:09:38;6.10;99.90
23475;DHT22;11910;52.086;21.066;2022-12-24T08:12:04;6.10;99.90
23475;DHT22;11910;52.086;21.066;2022-12-24T08:14:30;6.10;99.90
23475;DHT22;11910;52.086;21.066;2022-12-24T08:16:56;6.20;99.90
23475;DHT22;11910;52.086;21.066;2022-12-24T08:19:21;6.20;99.90
23475;DHT22;11910;52.086;21.066;2022-12-24T08:21:47;6.20;99.90
23475;DHT22;11910;52.086;21.066;2022-12-24T08:24:12;6.20;99.90
23475;DHT22;11910;52.086;21.066;2022-12-24T08:26:38;6.30;99.90
23475;DHT22;11910;52.086;21.066;2022-12-24T08:29:03;6.30;99.90
23475;DHT22;11910;52.086;21.066;2022-12-24T08:31:29;6.30;99.90
23475;DHT22;11910;52.086;21.066;2022-12-24T08:33:54;6.30;99.90
23475;DHT22;11910;52.086;21.066;2022-12-24T08:36:20;6.30;99.90
23475;DHT22;11910;52.086;21.066;2022-12-24T08:38:45;6.30;99.90
23475;DHT22;11910;52.086;21.066;2022-12-24T08:41:11;6.40;99.90
23475;DHT22;11910;52.086;21.066;2022-12-24T08:43:36;6.40;99.90
23475;DHT22;11910;52.086;21.066;2022-12-24T08:46:02;6.30;99.90
23475;DHT22;11910;52.086;21.066;2022-12-24T08:48:29;6.40;99.90
23475;DHT22;11910;52.086;21.066;2022-12-24T08:50:55;6.40;99.90
23475;DHT22;11910;52.086;21.066;2022-12-24T08:53:20;6.40;99.90
23475;DHT22;11910;52.086;21.066;2022-12-24T08:55:46;6.40;99.90
23475;DHT22;11910;52.086;21.066;2022-12-24T08:58:12;6.40;99.90
23475;DHT22;11910;52.086;21.066;2022-12-24T09:00:38;6.40;99.90
23475;DHT22;11910;52.086;21.066;2022-12-24T09:03:03;6.40;99.90
23475;DHT22;11910;52.086;21.066;2022-12-24T09:05:29;6.40;99.90
23475;DHT22;11910;52.086;21.066;2022-12-24T09:07:55;6.40;99.90
23475;DHT22;11910;52.086;21.066;2022-12-24T09:10:20;6.50;99.90
23475;DHT22;11910;52.086;21.066;2022-12-24T09:12:46;6.50;99.90
23475;DHT22;11910;52.086;21.066;2022-12-24T09:15:12;6.50;99.90
23475;DHT22;11910;52.086;21.066;2022-12-24T09:17:38;6.50;99.90
23475;DHT22;11910;52.086;21.066;2022-12-24T09:20:04;6.50;99.90
23475;DHT22;11910;52.086;21.066;2022-12-24T09:22:33;6.50;99.90
23475;DHT22;11910;52.086;21.066;2022-12-24T09:24:59;6.50;99.90
23475;DHT22;11910;52.086;21.066;2022-12-24T09:27:24;6.50;99.90
23475;DHT22;11910;52.086;21.066;2022-12-24T09:29:49;6.50;99.90
23475;DHT22;11910;52.086;21.066;2022-12-24T09:32:15;6.50;99.90
23475;DHT22;11910;52.086;21.066;2022-12-24T09:34:40;6.50;99.90
23475;DHT22;11910;52.086;21.066;2022-12-24T09:37:06;6.60;99.90
23475;DHT22;11910;52.086;21.066;2022-12-24T09:39:32;6.60;99.90
23475;DHT22;11910;52.086;21.066;2022-12-24T09:46:54;6.60;99.90
23475;DHT22;11910;52.086;21.066;2022-12-24T09:49:23;6.60;99.90
23475;DHT22;11910;52.086;21.066;2022-12-24T09:51:50;6.70;99.90
23475;DHT22;11910;52.086;21.066;2022-12-24T09:54:19;6.70;99.90
23475;DHT22;11910;52.086;21.066;2022-12-24T09:56:46;6.70;99.90
23475;DHT22;11910;52.086;21.066;2022-12-24T09:59:13;6.70;99.90
23475;DHT22;11910;52.086;21.066;2022-12-24T10:01:39;6.70;99.90
23475;DHT22;11910;52.086;21.066;2022-12-24T10:04:12;6.70;99.90
23475;DHT22;11910;52.086;21.066;2022-12-24T10:09:29;6.70;99.90
23475;DHT22;11910;52.086;21.066;2022-12-24T10:12:06;6.70;99.90
23475;DHT22;11910;52.086;21.066;2022-12-24T10:17:24;6.70;99.90
23475;DHT22;11910;52.086;21.066;2022-12-24T10:19:56;6.70;99.90
23475;DHT22;11910;52.086;21.066;2022-12-24T10:22:28;6.70;99.90
23475;DHT22;11910;52.086;21.066;2022-12-24T10:27:23;6.80;99.90
23475;DHT22;11910;52.086;21.066;2022-12-24T10:29:55;6.80;99.90
23475;DHT22;11910;52.086;21.066;2022-12-24T10:32:30;6.80;99.90
23475;DHT22;11910;52.086;21.066;2022-12-24T10:34:57;6.80;99.90
23475;DHT22;11910;52.086;21.066;2022-12-24T10:37:24;6.80;99.90
23475;DHT22;11910;52.086;21.066;2022-12-24T10:39:50;6.80;99.90
23475;DHT22;11910;52.086;21.066;2022-12-24T10:42:16;6.80;99.90
23475;DHT22;11910;52.086;21.066;2022-12-24T10:44:42;6.80;99.90
23475;DHT22;11910;52.086;21.066;2022-12-24T10:47:10;6.80;99.90
23475;DHT22;11910;52.086;21.066;2022-12-24T10:49:46;6.80;99.90
23475;DHT22;11910;52.086;21.066;2022-12-24T10:52:14;6.80;99.90
23475;DHT22;11910;52.086;21.066;2022-12-24T10:57:26;6.80;99.90
23475;DHT22;11910;52.086;21.066;2022-12-24T10:59:53;6.70;99.90
23475;DHT22;11910;52.086;21.066;2022-12-24T11:02:35;6.80;99.90
23475;DHT22;11910;52.086;21.066;2022-12-24T11:05:06;6.70;99.90
23475;DHT22;11910;52.086;21.066;2022-12-24T11:07:32;6.70;99.90
23475;DHT22;11910;52.086;21.066;2022-12-24T11:12:24;6.80;99.90
23475;DHT22;11910;52.086;21.066;2022-12-24T11:15:07;6.70;99.90
23475;DHT22;11910;52.086;21.066;2022-12-24T11:17:40;6.70;99.90
23475;DHT22;11910;52.086;21.066;2022-12-24T11:20:05;6.80;99.90
23475;DHT22;11910;52.086;21.066;2022-12-24T11:22:31;6.80;99.90
23475;DHT22;11910;52.086;21.066;2022-12-24T11:27:31;6.80;99.90
23475;DHT22;11910;52.086;21.066;2022-12-24T11:32:42;6.90;99.90
23475;DHT22;11910;52.086;21.066;2022-12-24T11:35:18;6.90;99.90
23475;DHT22;11910;52.086;21.066;2022-12-24T11:37:48;6.90;99.90
23475;DHT22;11910;52.086;21.066;2022-12-24T11:40:21;6.90;99.90
23475;DHT22;11910;52.086;21.066;2022-12-24T11:42:47;6.90;99.90
23475;DHT22;11910;52.086;21.066;2022-12-24T11:45:21;6.90;99.90
23475;DHT22;11910;52.086;21.066;2022-12-24T11:47:47;6.90;99.90
23475;DHT22;11910;52.086;21.066;2022-12-24T11:52:48;6.90;99.90
23475;DHT22;11910;52.086;21.066;2022-12-24T11:58:02;6.90;99.90
23475;DHT22;11910;52.086;21.066;2022-12-24T12:00:29;6.90;99.90
23475;DHT22;11910;52.086;21.066;2022-12-24T12:02:56;6.90;99.90
23475;DHT22;11910;52.086;21.066;2022-12-24T12:05:27;6.90;99.90
23475;DHT22;11910;52.086;21.066;2022-12-24T12:07:57;6.80;99.90
23475;DHT22;11910;52.086;21.066;2022-12-24T12:10:27;6.80;99.90
23475;DHT22;11910;52.086;21.066;2022-12-24T12:15:27;6.80;99.90
23475;DHT22;11910;52.086;21.066;2022-12-24T12:18:37;6.80;99.90
23475;DHT22;11910;52.086;21.066;2022-12-24T12:20:44;6.80;99.90
23475;DHT22;11910;52.086;21.066;2022-12-24T12:23:15;6.80;99.90
23475;DHT22;11910;52.086;21.066;2022-12-24T12:28:20;6.80;99.90
23475;DHT22;11910;52.086;21.066;2022-12-24T12:30:55;6.80;99.90
23475;DHT22;11910;52.086;21.066;2022-12-24T12:33:36;6.80;99.90
23475;DHT22;11910;52.086;21.066;2022-12-24T12:36:03;6.80;99.90
23475;DHT22;11910;52.086;21.066;2022-12-24T12:38:29;6.80;99.90
23475;DHT22;11910;52.086;21.066;2022-12-24T12:41:04;6.80;99.90
23475;DHT22;11910;52.086;21.066;2022-12-24T12:46:20;6.80;99.90
23475;DHT22;11910;52.086;21.066;2022-12-24T12:48:52;6.80;99.90
23475;DHT22;11910;52.086;21.066;2022-12-24T12:51:24;6.80;99.90
23475;DHT22;11910;52.086;21.066;2022-12-24T13:01:18;6.80;99.90
23475;DHT22;11910;52.086;21.066;2022-12-24T13:06:26;6.70;99.90
23475;DHT22;11910;52.086;21.066;2022-12-24T13:14:33;6.70;99.90
23475;DHT22;11910;52.086;21.066;2022-12-24T13:17:13;6.80;99.90
23475;DHT22;11910;52.086;21.066;2022-12-24T13:20:45;6.80;99.90
23475;DHT22;11910;52.086;21.066;2022-12-24T13:22:37;6.80;99.90
23475;DHT22;11910;52.086;21.066;2022-12-24T13:25:03;6.80;99.90
23475;DHT22;11910;52.086;21.066;2022-12-24T13:27:29;6.80;99.90
23475;DHT22;11910;52.086;21.066;2022-12-24T13:30:03;6.80;99.90
23475;DHT22;11910;52.086;21.066;2022-12-24T13:32:36;6.80;99.90
23475;DHT22;11910;52.086;21.066;2022-12-24T13:35:03;6.80;99.90
23475;DHT22;11910;52.086;21.066;2022-12-24T13:37:47;6.80;99.90
23475;DHT22;11910;52.086;21.066;2022-12-24T13:40:21;6.80;99.90
23475;DHT22;11910;52.086;21.066;2022-12-24T13:48:02;6.90;99.90
23475;DHT22;11910;52.086;21.066;2022-12-24T13:50:44;6.90;99.90
23475;DHT22;11910;52.086;21.066;2022-12-24T13:53:30;6.90;99.90
23475;DHT22;11910;52.086;21.066;2022-12-24T13:56:07;6.90;99.90
23475;DHT22;11910;52.086;21.066;2022-12-24T13:58:37;6.90;99.90
23475;DHT22;11910;52.086;21.066;2022-12-24T14:01:05;6.90;99.90
23475;DHT22;11910;52.086;21.066;2022-12-24T14:04:06;6.80;99.90
23475;DHT22;11910;52.086;21.066;2022-12-24T14:06:28;6.80;99.90
23475;DHT22;11910;52.086;21.066;2022-12-24T14:09:16;6.70;99.90
23475;DHT22;11910;52.086;21.066;2022-12-24T14:14:37;6.70;99.90
23475;DHT22;11910;52.086;21.066;2022-12-24T14:19:45;6.70;99.90
23475;DHT22;11910;52.086;21.066;2022-12-24T14:22:19;6.70;99.90
23475;DHT22;11910;52.086;21.066;2022-12-24T14:24:52;6.70;99.90
23475;DHT22;11910;52.086;21.066;2022-12-24T14:27:20;6.70;99.90
23475;DHT22;11910;52.086;21.066;2022-12-24T14:30:00;6.70;99.90
23475;DHT22;11910;52.086;21.066;2022-12-24T14:32:35;6.70;99.90
23475;DHT22;11910;52.086;21.066;2022-12-24T14:35:05;6.70;99.90
23475;DHT22;11910;52.086;21.066;2022-12-24T14:37:31;6.70;99.90
23475;DHT22;11910;52.086;21.066;2022-12-24T14:39:57;6.70;99.90
23475;DHT22;11910;52.086;21.066;2022-12-24T14:42:31;6.70;99.90
23475;DHT22;11910;52.086;21.066;2022-12-24T14:45:02;6.70;99.90
23475;DHT22;11910;52.086;21.066;2022-12-24T14:47:42;6.70;99.90
23475;DHT22;11910;52.086;21.066;2022-12-24T14:52:51;6.60;99.90
23475;DHT22;11910;52.086;21.066;2022-12-24T14:58:23;6.60;99.90
23475;DHT22;11910;52.086;21.066;2022-12-24T15:00:49;6.60;99.90
23475;DHT22;11910;52.086;21.066;2022-12-24T15:03:16;6.50;99.90
23475;DHT22;11910;52.086;21.066;2022-12-24T15:05:41;6.50;99.90
23475;DHT22;11910;52.086;21.066;2022-12-24T15:08:08;6.50;99.90
23475;DHT22;11910;52.086;21.066;2022-12-24T15:10:41;6.50;99.90
23475;DHT22;11910;52.086;21.066;2022-12-24T15:15:33;6.40;99.90
23475;DHT22;11910;52.086;21.066;2022-12-24T15:17:59;6.40;99.90
23475;DHT22;11910;52.086;21.066;2022-12-24T15:20:26;6.40;99.90
23475;DHT22;11910;52.086;21.066;2022-12-24T15:22:52;6.40;99.90
23475;DHT22;11910;52.086;21.066;2022-12-24T15:25:27;6.40;99.90
23475;DHT22;11910;52.086;21.066;2022-12-24T15:27:52;6.40;99.90
23475;DHT22;11910;52.086;21.066;2022-12-24T15:30:25;6.40;99.90
23475;DHT22;11910;52.086;21.066;2022-12-24T15:32:54;6.40;99.90
23475;DHT22;11910;52.086;21.066;2022-12-24T15:37:56;6.30;99.90
23475;DHT22;11910;52.086;21.066;2022-12-24T15:40:21;6.30;99.90
23475;DHT22;11910;52.086;21.066;2022-12-24T15:42:48;6.30;99.90
23475;DHT22;11910;52.086;21.066;2022-12-24T15:45:15;6.30;99.90
23475;DHT22;11910;52.086;21.066;2022-12-24T15:47:43;6.30;99.90
23475;DHT22;11910;52.086;21.066;2022-12-24T15:52:41;6.30;99.90
23475;DHT22;11910;52.086;21.066;2022-12-24T15:55:26;6.20;99.90
23475;DHT22;11910;52.086;21.066;2022-12-24T15:57:52;6.20;99.90
23475;DHT22;11910;52.086;21.066;2022-12-24T16:00:22;6.20;99.90
23475;DHT22;11910;52.086;21.066;2022-12-24T16:02:49;6.20;99.90
23475;DHT22;11910;52.086;21.066;2022-12-24T16:08:06;6.10;99.90
23475;DHT22;11910;52.086;21.066;2022-12-24T16:11:05;6.10;99.90
23475;DHT22;11910;52.086;21.066;2022-12-24T16:13:27;6.10;99.90
23475;DHT22;11910;52.086;21.066;2022-12-24T16:15:54;6.00;99.90
23475;DHT22;11910;52.086;21.066;2022-12-24T16:19:02;6.00;99.90
23475;DHT22;11910;52.086;21.066;2022-12-24T16:21:08;6.00;99.90
23475;DHT22;11910;52.086;21.066;2022-12-24T16:23:38;6.00;99.90
23475;DHT22;11910;52.086;21.066;2022-12-24T16:26:04;6.00;99.90
23475;DHT22;11910;52.086;21.066;2022-12-24T16:28:30;5.90;99.90
23475;DHT22;11910;52.086;21.066;2022-12-24T16:30:55;5.90;99.90
23475;DHT22;11910;52.086;21.066;2022-12-24T16:33:21;5.90;99.90
23475;DHT22;11910;52.086;21.066;2022-12-24T16:35:48;5.90;99.90
23475;DHT22;11910;52.086;21.066;2022-12-24T16:38:13;5.90;99.90
23475;DHT22;11910;52.086;21.066;2022-12-24T16:40:39;5.90;99.90
23475;DHT22;11910;52.086;21.066;2022-12-24T16:43:05;5.90;99.90
23475;DHT22;11910;52.086;21.066;2022-12-24T16:45:49;5.90;99.90
23475;DHT22;11910;52.086;21.066;2022-12-24T16:48:19;5.90;99.90
23475;DHT22;11910;52.086;21.066;2022-12-24T16:50:45;5.90;99.90
23475;DHT22;11910;52.086;21.066;2022-12-24T16:53:12;5.80;99.90
23475;DHT22;11910;52.086;21.066;2022-12-24T16:55:38;5.80;99.90
23475;DHT22;11910;52.086;21.066;2022-12-24T16:58:03;5.80;99.90
23475;DHT22;11910;52.086;21.066;2022-12-24T17:00:29;5.80;99.90
23475;DHT22;11910;52.086;21.066;2022-12-24T17:02:54;5.80;99.90
23475;DHT22;11910;52.086;21.066;2022-12-24T17:05:19;5.80;99.90
23475;DHT22;11910;52.086;21.066;2022-12-24T17:07:51;5.80;99.90
23475;DHT22;11910;52.086;21.066;2022-12-24T17:10:16;5.80;99.90
23475;DHT22;11910;52.086;21.066;2022-12-24T17:12:42;5.80;99.90
23475;DHT22;11910;52.086;21.066;2022-12-24T17:15:08;5.80;99.90